Time;durP1;ratioP1;P1;durP2;ratioP2;P2;SDS_P1;SDS_P2;PMS_P1;PMS_P2;Temp;Humidity;BMP_temperature;BMP_pressure;BME280_temperature;BME280_humidity;BME280_pressure;Samples;Min_cycle;Max_cycle;Signal;HPM_P1;HPM_P2
2022/10/16 00:01:54;;;;;;;;;;;;;;;17.57;78.06;100644.25;5066668;28;19928;-69
2022/10/16 00:04:20;;;;;;;;;;;;;;;17.71;77.89;100642.16;5060053;28;19924;-69
2022/10/16 00:06:47;;;;;;;;;;;;;;;17.40;78.73;100645.63;5057812;28;19924;-69
2022/10/16 00:09:13;;;;;;;;;;;;;;;17.20;79.50;100649.88;5067890;28;19927;-69
2022/10/16 00:11:40;;;;;;;;;;;;;;;16.95;80.31;100655.44;5081863;28;19931;-68
2022/10/16 00:14:08;;;;;;;;;;;;;;;17.27;79.00;100661.66;5061562;28;19928;-68
2022/10/16 00:16:35;;;;;;;;;;;;;;;17.42;78.24;100652.47;5071661;28;19989;-68
2022/10/16 00:19:03;;;;;;;;;;;;;;;17.35;77.59;100651.28;5071579;28;19924;-68
2022/10/16 00:21:30;;;;;;;;;;;;;;;17.23;77.69;100649.63;5060639;28;19924;-68
2022/10/16 00:23:58;;;;;;;;;;;;;;;17.07;77.94;100646.53;5062721;28;19928;-68
2022/10/16 00:26:25;;;;;;;;;;;;;;;16.97;78.63;100654.34;5070315;28;20291;-69
2022/10/16 00:28:52;;;;;;;;;;;;;;;16.76;78.67;100656.06;5046016;28;20288;-69
2022/10/16 00:31:19;;;;;;;;;;;;;;;16.95;78.07;100663.41;5071157;28;19924;-69
2022/10/16 00:33:46;;;;;;;;;;;;;;;16.79;77.80;100660.25;5069550;28;19928;-69
2022/10/16 00:36:14;;;;;;;;;;;;;;;16.95;77.16;100652.81;5056339;28;19924;-69
2022/10/16 00:38:41;;;;;;;;;;;;;;;16.57;78.25;100661.09;5070415;28;19972;-68
2022/10/16 00:41:08;;;;;;;;;;;;;;;16.58;78.52;100659.28;5071048;28;19924;-68
2022/10/16 00:43:36;;;;;;;;;;;;;;;16.50;78.87;100655.41;5060512;28;19940;-69
2022/10/16 00:46:04;;;;;;;;;;;;;;;16.43;79.67;100663.94;5070833;28;19927;-69
2022/10/16 00:48:31;;;;;;;;;;;;;;;16.52;80.25;100666.72;5070830;28;19931;-69
2022/10/16 00:50:57;;;;;;;;;;;;;;;16.62;79.97;100666.88;5061016;28;19924;-69
2022/10/16 00:53:25;;;;;;;;;;;;;;;16.40;80.67;100659.75;5073809;28;19928;-69
2022/10/16 00:55:52;;;;;;;;;;;;;;;16.34;80.65;100657.53;5069605;28;19943;-69
2022/10/16 00:58:18;;;;;;;;;;;;;;;16.08;81.77;100672.75;5060821;28;19927;-68
2022/10/16 01:00:45;;;;;;;;;;;;;;;15.93;82.81;100675.69;5086172;28;19924;-69
2022/10/16 01:03:23;;;;;;;;;;;;;;;15.65;83.59;100687.50;5081042;28;19924;-69
2022/10/16 01:05:53;;;;;;;;;;;;;;;15.55;85.12;100689.97;5069944;28;19924;-69
2022/10/16 01:08:23;;;;;;;;;;;;;;;15.92;84.41;100695.19;5075999;28;19928;-69
2022/10/16 01:10:55;;;;;;;;;;;;;;;16.28;82.63;100697.72;5065745;28;19931;-69
2022/10/16 01:13:23;;;;;;;;;;;;;;;16.31;80.77;100692.19;5068695;28;19931;-69
2022/10/16 01:15:53;;;;;;;;;;;;;;;16.15;80.66;100696.13;5070798;28;19974;-69
2022/10/16 01:18:22;;;;;;;;;;;;;;;15.76;83.30;100702.56;5069517;28;20388;-69
2022/10/16 01:20:51;;;;;;;;;;;;;;;15.70;85.76;100698.59;5068618;28;20489;-69
2022/10/16 01:23:22;;;;;;;;;;;;;;;16.07;83.97;100702.00;5051286;28;19924;-69
2022/10/16 01:26:09;;;;;;;;;;;;;;;16.17;83.34;100705.63;5062341;28;19924;-69
2022/10/16 01:28:40;;;;;;;;;;;;;;;16.13;82.66;100703.31;5052163;28;19924;-69
2022/10/16 01:31:06;;;;;;;;;;;;;;;16.13;81.97;100704.16;5068667;28;19928;-69
2022/10/16 01:33:36;;;;;;;;;;;;;;;15.91;84.38;100702.28;5069153;28;19935;-69
2022/10/16 01:36:07;;;;;;;;;;;;;;;16.10;84.11;100711.47;5053593;28;19994;-69
2022/10/16 01:38:35;;;;;;;;;;;;;;;15.83;85.28;100719.66;5068622;28;19924;-69
2022/10/16 01:41:03;;;;;;;;;;;;;;;15.90;85.81;100710.31;5068813;28;19928;-69
2022/10/16 01:43:32;;;;;;;;;;;;;;;16.27;84.26;100709.25;5064174;28;19924;-69
2022/10/16 01:46:01;;;;;;;;;;;;;;;16.61;83.10;100696.13;5069150;28;20498;-69
2022/10/16 01:48:27;;;;;;;;;;;;;;;16.52;82.41;100693.19;5062433;28;19951;-69
2022/10/16 01:50:57;;;;;;;;;;;;;;;16.10;84.25;100701.75;5070355;28;20552;-69
2022/10/16 01:53:24;;;;;;;;;;;;;;;16.24;84.18;100698.91;5074140;28;19932;-70
2022/10/16 01:55:53;;;;;;;;;;;;;;;16.52;82.89;100708.22;5059205;28;19963;-69
2022/10/16 01:58:19;;;;;;;;;;;;;;;16.79;81.06;100697.34;5068697;28;19932;-69
2022/10/16 02:00:47;;;;;;;;;;;;;;;16.87;80.42;100710.81;5068075;28;20284;-69
2022/10/16 02:03:16;;;;;;;;;;;;;;;16.59;80.39;100706.84;5059310;28;20436;-69
2022/10/16 02:05:45;;;;;;;;;;;;;;;16.54;80.41;100703.66;5061410;28;19973;-69
2022/10/16 02:08:12;;;;;;;;;;;;;;;16.24;81.89;100698.91;5069321;28;19928;-69
2022/10/16 02:10:39;;;;;;;;;;;;;;;15.39;87.48;100704.38;5058426;28;19931;-69
2022/10/16 02:13:07;;;;;;;;;;;;;;;15.66;87.85;100709.50;5067714;28;19924;-69
2022/10/16 02:15:33;;;;;;;;;;;;;;;16.13;85.86;100701.50;5069211;28;19931;-69
2022/10/16 02:18:00;;;;;;;;;;;;;;;15.64;88.00;100709.59;5058741;28;20006;-69
2022/10/16 02:20:28;;;;;;;;;;;;;;;16.26;84.83;100706.75;5067339;28;19924;-69
2022/10/16 02:22:57;;;;;;;;;;;;;;;16.39;83.26;100704.84;5068530;28;19928;-69
2022/10/16 02:25:26;;;;;;;;;;;;;;;16.12;84.42;100704.25;5059122;28;19931;-69
2022/10/16 02:27:56;;;;;;;;;;;;;;;15.92;84.91;100713.72;5067250;28;19935;-69
2022/10/16 02:30:25;;;;;;;;;;;;;;;15.99;85.17;100709.66;5067979;28;19931;-69
2022/10/16 02:32:53;;;;;;;;;;;;;;;15.74;85.74;100715.06;5062819;28;21014;-69
2022/10/16 02:35:20;;;;;;;;;;;;;;;16.12;83.94;100712.19;5060577;28;20379;-69
2022/10/16 02:37:49;;;;;;;;;;;;;;;15.95;83.67;100706.38;5068239;28;19932;-69
2022/10/16 02:40:16;;;;;;;;;;;;;;;15.58;84.91;100717.97;5068076;28;19978;-69
2022/10/16 02:42:42;;;;;;;;;;;;;;;15.50;85.29;100722.97;5067881;28;19928;-69
2022/10/16 02:45:10;;;;;;;;;;;;;;;15.96;82.97;100723.91;5063545;28;20391;-69
2022/10/16 02:47:36;;;;;;;;;;;;;;;15.99;82.68;100721.06;5068601;28;19932;-69
2022/10/16 02:50:03;;;;;;;;;;;;;;;16.20;81.29;100723.06;5079394;28;19931;-68
2022/10/16 02:52:30;;;;;;;;;;;;;;;15.95;81.98;100726.69;5067685;28;19932;-69
2022/10/16 02:54:57;;;;;;;;;;;;;;;15.87;82.67;100737.84;5068441;28;20031;-69
2022/10/16 02:57:24;;;;;;;;;;;;;;;16.26;80.89;100735.84;5067586;28;19924;-69
2022/10/16 02:59:50;;;;;;;;;;;;;;;16.60;79.64;100744.72;5076129;28;20371;-69
2022/10/16 03:02:16;;;;;;;;;;;;;;;16.77;79.04;100736.34;5074082;28;19937;-69
2022/10/16 03:04:43;;;;;;;;;;;;;;;17.07;77.38;100741.06;5069836;28;19936;-69
2022/10/16 03:07:09;;;;;;;;;;;;;;;17.02;77.27;100736.97;5067503;28;20372;-69
2022/10/16 03:09:35;;;;;;;;;;;;;;;17.06;77.44;100736.72;5057261;28;19928;-69
2022/10/16 03:12:03;;;;;;;;;;;;;;;17.03;77.58;100730.69;5067539;28;19924;-69
2022/10/16 03:14:30;;;;;;;;;;;;;;;16.66;79.14;100736.31;5068459;28;19924;-69
2022/10/16 03:16:56;;;;;;;;;;;;;;;16.20;81.81;100745.06;5057889;28;19924;-69
2022/10/16 03:19:22;;;;;;;;;;;;;;;16.33;81.86;100743.16;5067227;28;19928;-69
2022/10/16 03:21:48;;;;;;;;;;;;;;;16.55;80.45;100742.41;5064509;28;19928;-69
2022/10/16 03:24:15;;;;;;;;;;;;;;;16.27;81.74;100748.94;5058431;28;19924;-69
2022/10/16 03:26:41;;;;;;;;;;;;;;;16.49;80.78;100737.56;5068908;28;20384;-69
2022/10/16 03:29:09;;;;;;;;;;;;;;;16.41;80.89;100738.16;5066962;28;20104;-69
2022/10/16 03:31:35;;;;;;;;;;;;;;;16.30;81.81;100740.75;5057616;28;20055;-69
2022/10/16 03:34:01;;;;;;;;;;;;;;;16.51;81.21;100749.75;5067383;28;20379;-69
2022/10/16 03:36:27;;;;;;;;;;;;;;;16.91;79.17;100744.06;5074260;28;20273;-69
2022/10/16 03:38:54;;;;;;;;;;;;;;;16.94;78.99;100747.31;5058221;28;19924;-69
2022/10/16 03:41:20;;;;;;;;;;;;;;;16.95;78.35;100742.84;5068215;28;19924;-69
2022/10/16 03:43:46;;;;;;;;;;;;;;;17.36;77.08;100748.38;5067906;28;19928;-69
2022/10/16 03:46:14;;;;;;;;;;;;;;;17.36;76.90;100748.38;5060922;28;19932;-69
2022/10/16 03:48:41;;;;;;;;;;;;;;;17.07;77.85;100739.25;5070983;28;19924;-69
2022/10/16 03:51:07;;;;;;;;;;;;;;;17.16;77.73;100737.66;5071408;28;19928;-69
2022/10/16 03:53:33;;;;;;;;;;;;;;;17.33;77.13;100731.88;5062829;28;20458;-69
2022/10/16 03:56:00;;;;;;;;;;;;;;;17.26;77.23;100735.97;5076890;28;19931;-69
2022/10/16 03:58:26;;;;;;;;;;;;;;;17.18;77.63;100733.94;5091837;28;19932;-69
2022/10/16 04:00:52;;;;;;;;;;;;;;;17.36;77.09;100737.78;5066938;28;19924;-69
2022/10/16 04:03:21;;;;;;;;;;;;;;;17.12;77.11;100734.41;5073646;28;20367;-69
2022/10/16 04:05:47;;;;;;;;;;;;;;;17.07;77.87;100736.59;5070156;28;19932;-69
2022/10/16 04:08:13;;;;;;;;;;;;;;;16.86;79.18;100739.09;5061202;28;19924;-69
2022/10/16 04:10:40;;;;;;;;;;;;;;;16.53;81.54;100747.81;5071589;28;20316;-69
2022/10/16 04:13:06;;;;;;;;;;;;;;;16.56;81.99;100749.41;5070947;28;19928;-69
2022/10/16 04:15:32;;;;;;;;;;;;;;;16.79;81.47;100740.53;5061897;28;20307;-69
2022/10/16 04:17:58;;;;;;;;;;;;;;;17.16;80.19;100740.31;5070923;28;19928;-69
2022/10/16 04:20:26;;;;;;;;;;;;;;;16.98;81.18;100742.59;5070385;28;19924;-69
2022/10/16 04:22:52;;;;;;;;;;;;;;;17.14;80.57;100748.41;5052026;28;19924;-69
2022/10/16 04:25:19;;;;;;;;;;;;;;;16.97;79.75;100746.22;5071525;28;19924;-69
2022/10/16 04:27:45;;;;;;;;;;;;;;;17.05;80.21;100751.75;5070629;28;19931;-69
2022/10/16 04:30:11;;;;;;;;;;;;;;;17.33;79.75;100764.50;5061289;28;19947;-68
2022/10/16 04:32:38;;;;;;;;;;;;;;;17.41;78.96;100755.94;5071821;28;19928;-68
2022/10/16 04:35:04;;;;;;;;;;;;;;;17.59;78.07;100754.50;5062438;28;20006;-69
2022/10/16 04:37:32;;;;;;;;;;;;;;;16.87;81.23;100755.84;5067974;28;19931;-69
2022/10/16 04:39:58;;;;;;;;;;;;;;;16.80;81.68;100758.13;5071521;28;19935;-69
2022/10/16 04:42:24;;;;;;;;;;;;;;;17.13;80.65;100767.91;5070229;28;19931;-69
2022/10/16 04:44:51;;;;;;;;;;;;;;;17.12;80.79;100775.97;5083130;28;20332;-69
2022/10/16 04:47:17;;;;;;;;;;;;;;;16.82;82.71;100766.78;5081495;28;19933;-68
2022/10/16 04:49:43;;;;;;;;;;;;;;;16.93;82.41;100779.19;5069625;28;19927;-69
2022/10/16 04:52:10;;;;;;;;;;;;;;;16.55;83.65;100780.28;5071384;28;19924;-69
2022/10/16 04:54:37;;;;;;;;;;;;;;;16.23;85.82;100789.81;5061174;28;19924;-69
2022/10/16 04:57:04;;;;;;;;;;;;;;;16.12;87.27;100787.13;5073366;28;20383;-69
2022/10/16 04:59:31;;;;;;;;;;;;;;;15.75;89.81;100785.47;5084481;28;19924;-69
2022/10/16 05:01:57;;;;;;;;;;;;;;;15.97;89.14;100769.72;5068605;28;19923;-69
2022/10/16 05:04:24;;;;;;;;;;;;;;;16.39;87.01;100776.28;5069542;28;19924;-69
2022/10/16 05:06:50;;;;;;;;;;;;;;;16.47;85.76;100774.75;5067353;28;20287;-69
2022/10/16 05:09:16;;;;;;;;;;;;;;;16.29;86.90;100772.66;5059772;28;19924;-69
2022/10/16 05:11:44;;;;;;;;;;;;;;;16.23;86.97;100775.72;5075114;28;20410;-69
2022/10/16 05:14:10;;;;;;;;;;;;;;;16.36;85.92;100779.16;5064385;28;19994;-69
2022/10/16 05:16:36;;;;;;;;;;;;;;;16.23;87.15;100787.16;5059749;28;19932;-69
2022/10/16 05:19:03;;;;;;;;;;;;;;;16.04;88.09;100790.31;5087704;28;20144;-69
2022/10/16 05:21:29;;;;;;;;;;;;;;;15.85;89.22;100783.88;5076118;28;19930;-69
2022/10/16 05:23:55;;;;;;;;;;;;;;;16.11;87.20;100785.44;5054690;28;19924;-69
2022/10/16 05:26:21;;;;;;;;;;;;;;;16.52;85.02;100783.19;5076573;28;19924;-69
2022/10/16 05:28:50;;;;;;;;;;;;;;;16.62;84.10;100790.47;5079697;28;20524;-69
2022/10/16 05:31:16;;;;;;;;;;;;;;;15.82;88.95;100792.00;5073761;28;19931;-69
2022/10/16 05:33:43;;;;;;;;;;;;;;;16.19;88.53;100795.44;5072095;28;19932;-69
2022/10/16 05:36:10;;;;;;;;;;;;;;;16.52;86.22;100798.22;5072546;28;20372;-69
2022/10/16 05:38:37;;;;;;;;;;;;;;;16.37;87.11;100810.78;5060074;28;19928;-69
2022/10/16 05:41:04;;;;;;;;;;;;;;;16.77;85.17;100799.91;5087432;28;19924;-69
2022/10/16 05:43:31;;;;;;;;;;;;;;;16.69;85.08;100803.13;5089987;28;19928;-68
2022/10/16 05:45:59;;;;;;;;;;;;;;;16.58;85.52;100799.59;5079749;28;19935;-68
2022/10/16 05:48:26;;;;;;;;;;;;;;;16.26;87.03;100812.56;5076342;28;19930;-68
2022/10/16 05:50:57;;;;;;;;;;;;;;;16.20;87.35;100816.50;5053456;28;19925;-69
2022/10/16 05:53:25;;;;;;;;;;;;;;;16.37;86.77;100820.56;5056151;28;19966;-69
2022/10/16 05:55:52;;;;;;;;;;;;;;;16.15;87.44;100823.09;5067101;28;19976;-68
2022/10/16 05:58:18;;;;;;;;;;;;;;;16.08;87.51;100831.47;5069197;28;19932;-68
2022/10/16 06:00:45;;;;;;;;;;;;;;;16.24;87.49;100840.94;5059055;28;19924;-68
2022/10/16 06:03:12;;;;;;;;;;;;;;;16.07;88.97;100844.81;5068753;28;19924;-68
2022/10/16 06:05:39;;;;;;;;;;;;;;;15.76;90.26;100838.25;5066467;28;20296;-68
2022/10/16 06:08:05;;;;;;;;;;;;;;;15.73;90.33;100832.34;5069016;28;19931;-68
2022/10/16 06:10:31;;;;;;;;;;;;;;;16.12;89.02;100836.53;5088372;28;19923;-68
2022/10/16 06:12:58;;;;;;;;;;;;;;;16.34;87.24;100839.28;5088641;28;19923;-68
2022/10/16 06:15:24;;;;;;;;;;;;;;;16.62;85.93;100830.19;5078797;28;20374;-68
2022/10/16 06:17:50;;;;;;;;;;;;;;;17.11;83.61;100833.41;5086969;28;19931;-68
2022/10/16 06:20:18;;;;;;;;;;;;;;;16.90;83.51;100820.00;5088825;28;19923;-68
2022/10/16 06:22:44;;;;;;;;;;;;;;;16.74;84.20;100823.97;5079050;28;19923;-68
2022/10/16 06:25:10;;;;;;;;;;;;;;;16.74;85.00;100834.56;5088001;28;19924;-69
2022/10/16 06:27:37;;;;;;;;;;;;;;;17.16;83.69;100841.84;5080184;28;20595;-69
2022/10/16 06:30:03;;;;;;;;;;;;;;;17.13;83.77;100828.00;5066124;28;19923;-69
2022/10/16 06:32:29;;;;;;;;;;;;;;;16.39;86.94;100834.50;5063600;28;19928;-69
2022/10/16 06:34:56;;;;;;;;;;;;;;;17.04;83.73;100843.63;5076479;28;19923;-69
2022/10/16 06:37:24;;;;;;;;;;;;;;;17.36;82.71;100842.97;5063446;28;20000;-68
2022/10/16 06:39:52;;;;;;;;;;;;;;;17.03;83.96;100846.41;5066823;28;19924;-68
2022/10/16 06:42:18;;;;;;;;;;;;;;;17.24;83.22;100865.94;5068535;28;19928;-69
2022/10/16 06:44:44;;;;;;;;;;;;;;;17.48;82.47;100879.09;5058013;28;20281;-69
2022/10/16 06:47:11;;;;;;;;;;;;;;;17.79;80.72;100882.88;5070641;28;20394;-69
2022/10/16 06:49:37;;;;;;;;;;;;;;;17.20;83.17;100888.34;5074603;28;19930;-69
2022/10/16 06:52:04;;;;;;;;;;;;;;;17.21;83.15;100887.41;5078334;28;19998;-68
2022/10/16 06:54:32;;;;;;;;;;;;;;;16.92;84.92;100878.19;5086070;28;20362;-68
2022/10/16 06:56:59;;;;;;;;;;;;;;;17.32;83.00;100879.47;5068254;28;19927;-69
2022/10/16 06:59:26;;;;;;;;;;;;;;;17.29;83.12;100885.00;5067853;28;19931;-70
2022/10/16 07:01:52;;;;;;;;;;;;;;;17.57;81.88;100882.88;5087368;28;19931;-69
2022/10/16 07:04:18;;;;;;;;;;;;;;;17.89;80.41;100889.13;5094880;28;19939;-69
2022/10/16 07:06:45;;;;;;;;;;;;;;;17.93;80.21;100885.25;5094911;28;19927;-69
2022/10/16 07:09:11;;;;;;;;;;;;;;;17.92;79.72;100887.06;5103859;28;19943;-69
2022/10/16 07:11:39;;;;;;;;;;;;;;;17.62;81.10;100892.16;5101143;28;19924;-69
2022/10/16 07:14:11;;;;;;;;;;;;;;;17.60;82.11;100906.50;5104223;28;19924;-69
2022/10/16 07:16:38;;;;;;;;;;;;;;;17.54;82.21;100905.16;5092662;28;19931;-69
2022/10/16 07:19:04;;;;;;;;;;;;;;;17.26;83.35;100913.53;5103589;28;19923;-69
2022/10/16 07:21:35;;;;;;;;;;;;;;;17.47;83.11;100912.75;5105403;28;19942;-70
2022/10/16 07:24:02;;;;;;;;;;;;;;;17.21;84.52;100924.50;5102809;28;19924;-69
2022/10/16 07:26:29;;;;;;;;;;;;;;;17.06;84.92;100930.97;5088817;28;20532;-69
2022/10/16 07:28:57;;;;;;;;;;;;;;;17.12;84.23;100927.81;5100150;28;20531;-69
2022/10/16 07:31:23;;;;;;;;;;;;;;;17.26;84.09;100926.78;5088555;28;20023;-69
2022/10/16 07:33:50;;;;;;;;;;;;;;;17.67;82.61;100928.91;5086957;28;20385;-68
2022/10/16 07:36:18;;;;;;;;;;;;;;;17.69;82.47;100927.84;5091427;28;19924;-69
2022/10/16 07:38:44;;;;;;;;;;;;;;;17.48;83.06;100927.66;5084566;28;19960;-70
2022/10/16 07:41:11;;;;;;;;;;;;;;;17.50;83.48;100936.34;5087141;28;20375;-69
2022/10/16 07:43:38;;;;;;;;;;;;;;;17.88;81.66;100940.50;5086338;28;19935;-69
2022/10/16 07:46:06;;;;;;;;;;;;;;;18.21;80.19;100955.56;5086801;28;19938;-69
2022/10/16 07:48:34;;;;;;;;;;;;;;;18.35;79.50;100965.91;5097322;28;20306;-69
2022/10/16 07:51:00;;;;;;;;;;;;;;;18.46;78.96;100969.38;5105381;28;19928;-69
2022/10/16 07:53:27;;;;;;;;;;;;;;;18.62;78.13;100976.16;5099179;28;20352;-69
2022/10/16 07:55:57;;;;;;;;;;;;;;;18.09;80.01;100972.44;5097877;28;19928;-69
2022/10/16 07:58:24;;;;;;;;;;;;;;;17.78;80.91;100972.19;5097596;28;19969;-69
2022/10/16 08:00:50;;;;;;;;;;;;;;;18.02;80.51;100974.75;5099517;28;19980;-69
2022/10/16 08:03:18;;;;;;;;;;;;;;;18.33;78.96;100983.75;5086468;28;20279;-69
2022/10/16 08:05:44;;;;;;;;;;;;;;;17.97;80.86;100982.22;5091178;28;19928;-69
2022/10/16 08:08:12;;;;;;;;;;;;;;;17.68;82.02;100978.34;5084493;28;19931;-69
2022/10/16 08:10:39;;;;;;;;;;;;;;;17.90;81.15;100981.84;5096222;28;19928;-69
2022/10/16 08:13:05;;;;;;;;;;;;;;;17.79;81.63;100978.34;5102369;28;20548;-69
2022/10/16 08:15:31;;;;;;;;;;;;;;;17.68;82.45;100984.50;5084439;28;19924;-68
2022/10/16 08:17:58;;;;;;;;;;;;;;;17.59;82.78;100981.72;5086100;28;20433;-69
2022/10/16 08:20:26;;;;;;;;;;;;;;;17.91;81.64;100982.72;5085179;28;20383;-69
2022/10/16 08:22:53;;;;;;;;;;;;;;;18.81;79.13;101005.53;5089125;28;19924;-69
2022/10/16 08:25:20;;;;;;;;;;;;;;;19.49;76.32;101004.31;5107544;28;19924;-69
2022/10/16 08:27:46;;;;;;;;;;;;;;;19.81;74.42;101003.25;5096615;28;19924;-69
2022/10/16 08:30:13;;;;;;;;;;;;;;;20.97;70.46;101001.81;5092541;28;20402;-69
2022/10/16 08:32:39;;;;;;;;;;;;;;;22.04;66.72;101001.56;5089818;28;19924;-69
2022/10/16 08:35:06;;;;;;;;;;;;;;;22.98;61.46;101005.69;5092049;28;20315;-69
2022/10/16 08:37:34;;;;;;;;;;;;;;;23.22;60.65;101011.25;5098308;28;19931;-67
2022/10/16 08:40:00;;;;;;;;;;;;;;;23.33;61.13;101012.00;5109569;28;19973;-68
2022/10/16 08:42:36;;;;;;;;;;;;;;;23.16;59.13;101003.00;5108447;28;20293;-67
2022/10/16 08:45:23;;;;;;;;;;;;;;;22.80;60.48;101005.66;5104835;28;19924;-67
2022/10/16 08:47:56;;;;;;;;;;;;;;;22.87;59.81;101010.41;5083042;28;19924;-67
2022/10/16 08:50:24;;;;;;;;;;;;;;;22.69;60.02;101021.91;5098032;28;19928;-67
2022/10/16 08:52:51;;;;;;;;;;;;;;;;;;5076524;28;19925;-68
2022/10/16 08:55:26;;;;;;;;;;;;;;;22.17;60.41;101031.44;5080283;28;19924;-68
2022/10/16 08:57:53;;;;;;;;;;;;;;;21.74;62.45;101031.13;5090607;28;19927;-68
2022/10/16 09:00:19;;;;;;;;;;;;;;;21.83;62.13;101040.94;5088483;28;19928;-69
2022/10/16 09:02:51;;;;;;;;;;;;;;;21.80;62.56;101039.38;5087137;28;19924;-68
2022/10/16 09:05:25;;;;;;;;;;;;;;;21.36;63.71;101042.66;5087834;28;19928;-68
2022/10/16 09:07:57;;;;;;;;;;;;;;;21.15;64.85;101055.31;5084403;28;20301;-69
2022/10/16 09:10:30;;;;;;;;;;;;;;;22.22;61.81;101063.91;5086486;28;19927;-68
2022/10/16 09:13:01;;;;;;;;;;;;;;;23.19;59.32;101064.22;5088362;28;19931;-68
2022/10/16 09:15:33;;;;;;;;;;;;;;;23.55;57.22;101065.91;5089231;28;20280;-69
2022/10/16 09:18:02;;;;;;;;;;;;;;;23.67;57.14;101056.66;5087566;28;19928;-68
2022/10/16 09:20:31;;;;;;;;;;;;;;;23.41;57.10;101066.44;5088128;28;19924;-68
2022/10/16 09:23:08;;;;;;;;;;;;;;;23.39;56.99;101075.63;5100844;28;19924;-68
2022/10/16 09:25:37;;;;;;;;;;;;;;;23.39;56.15;101064.91;5087668;28;19932;-68
2022/10/16 09:28:03;;;;;;;;;;;;;;;22.76;57.92;101059.59;5086974;28;20283;-69
2022/10/16 09:30:30;;;;;;;;;;;;;;;22.64;58.27;101053.59;5096899;28;20149;-68
2022/10/16 09:32:58;;;;;;;;;;;;;;;22.59;58.00;101058.53;5095432;28;19924;-68
2022/10/16 09:35:28;;;;;;;;;;;;;;;22.12;59.27;101060.44;5087342;28;19924;-68
2022/10/16 09:37:55;;;;;;;;;;;;;;;21.82;59.71;101065.94;5087470;28;19924;-68
2022/10/16 09:40:26;;;;;;;;;;;;;;;22.01;59.14;101059.75;5088236;28;19925;-68
2022/10/16 09:42:57;;;;;;;;;;;;;;;22.25;59.38;101057.41;5087820;28;19932;-68
2022/10/16 09:45:24;;;;;;;;;;;;;;;22.03;59.29;101063.94;5086929;28;19964;-68
2022/10/16 09:47:51;;;;;;;;;;;;;;;21.80;59.14;101067.94;5087613;28;19924;-68
2022/10/16 09:50:22;;;;;;;;;;;;;;;21.49;59.37;101063.75;5088081;28;19947;-68
2022/10/16 09:52:48;;;;;;;;;;;;;;;21.57;59.71;101072.72;5085661;28;19924;-68
2022/10/16 09:55:16;;;;;;;;;;;;;;;21.79;59.33;101079.59;5086792;28;19924;-69
2022/10/16 09:57:49;;;;;;;;;;;;;;;21.47;59.54;101074.53;5087800;28;19928;-69
2022/10/16 10:00:18;;;;;;;;;;;;;;;20.81;61.19;101073.47;5087692;28;19924;-69
2022/10/16 10:02:44;;;;;;;;;;;;;;;20.59;61.76;101090.50;5087371;28;20011;-69
2022/10/16 10:05:19;;;;;;;;;;;;;;;21.07;62.01;101090.63;5064929;28;22195;-69
2022/10/16 10:07:46;;;;;;;;;;;;;;;22.17;59.59;101081.38;5085343;28;20338;-68
2022/10/16 10:10:20;;;;;;;;;;;;;;;22.21;56.73;101082.72;5086436;28;19928;-68
2022/10/16 10:12:46;;;;;;;;;;;;;;;22.23;55.79;101086.97;5066438;28;20015;-68
2022/10/16 10:15:19;;;;;;;;;;;;;;;22.70;56.70;101073.56;5067304;28;20299;-67
2022/10/16 10:17:48;;;;;;;;;;;;;;;23.35;54.42;101076.94;5061089;28;19946;-67
2022/10/16 10:20:22;;;;;;;;;;;;;;;23.35;53.52;101084.94;5069301;28;20371;-66
2022/10/16 10:22:48;;;;;;;;;;;;;;;22.47;54.88;101080.28;5068096;28;19928;-66
2022/10/16 10:25:26;;;;;;;;;;;;;;;22.25;56.86;101090.31;5054984;28;19931;-66
2022/10/16 10:28:07;;;;;;;;;;;;;;;21.50;57.11;101086.78;5067994;28;20399;-66
2022/10/16 10:30:38;;;;;;;;;;;;;;;21.03;58.32;101096.38;5038118;28;19932;-66
2022/10/16 10:33:12;;;;;;;;;;;;;;;20.97;59.89;101095.13;5048536;28;20303;-67
2022/10/16 10:35:44;;;;;;;;;;;;;;;21.11;59.23;101101.91;5058115;28;19924;-67
2022/10/16 10:38:21;;;;;;;;;;;;;;;21.00;59.46;101105.50;5068773;28;20097;-66
2022/10/16 10:40:51;;;;;;;;;;;;;;;20.96;58.27;101096.09;5067929;28;19932;-66
2022/10/16 10:43:25;;;;;;;;;;;;;;;21.15;58.90;101109.50;5067938;28;20329;-66
2022/10/16 10:45:54;;;;;;;;;;;;;;;21.25;57.60;101105.00;5067195;28;19923;-66
2022/10/16 10:48:28;;;;;;;;;;;;;;;21.71;56.25;101111.47;5058770;28;19936;-66
2022/10/16 10:50:57;;;;;;;;;;;;;;;21.98;55.40;101102.78;5066964;28;19936;-67
2022/10/16 10:53:31;;;;;;;;;;;;;;;22.52;53.69;101099.34;5068586;28;19928;-67
2022/10/16 11:10:31;;;;;;;2.83;1.00;;;;;;;20.20;58.16;101110.78;5075168;27;20395;-76
2022/10/16 11:12:59;;;;;;;;;;;;;;;20.58;57.25;101117.31;5083140;28;20263;-75
2022/10/16 11:15:31;;;;;;;1.80;1.00;;;;;;;20.94;57.25;101119.38;5085690;28;19926;-75
2022/10/16 11:18:04;;;;;;;2.13;1.00;;;;;;;21.20;56.55;101111.75;5064579;28;20048;-75
2022/10/16 11:20:34;;;;;;;2.83;0.90;;;;;;;21.29;55.19;101114.41;5062601;28;20044;-74
2022/10/16 11:23:06;;;;;;;2.40;1.00;;;;;;;21.79;55.97;101109.78;5052728;28;20040;-76
2022/10/16 11:25:34;;;;;;;2.35;1.13;;;;;;;22.39;56.22;101107.72;5073616;27;20040;-74
2022/10/16 11:28:06;;;;;;;3.20;1.13;;;;;;;23.00;52.42;101108.00;5084577;28;20055;-75
2022/10/16 11:30:41;;;;;;;5.30;1.00;;;;;;;23.28;50.01;101111.47;5082066;28;20045;-73
2022/10/16 11:33:31;;;;;;;2.10;0.90;;;;;;;22.97;48.87;101108.31;5084690;28;20044;-73
2022/10/16 11:36:03;;;;;;;1.48;0.70;;;;;;;22.95;49.63;101118.28;5083905;28;20040;-74
2022/10/16 11:38:35;;;;;;;3.92;0.90;;;;;;;23.19;48.78;101123.94;5085865;27;20043;-74
2022/10/16 11:41:16;;;;;;;2.28;0.90;;;;;;;22.76;49.30;101127.25;5078221;28;20039;-74
2022/10/16 11:43:47;;;;;;;2.78;0.80;;;;;;;23.39;48.46;101129.97;5084259;28;20040;-74
2022/10/16 11:46:18;;;;;;;1.70;0.90;;;;;;;23.40;48.47;101133.47;5077635;27;20034;-74
2022/10/16 11:48:51;;;;;;;3.53;0.90;;;;;;;23.35;46.93;101127.78;5105479;27;20120;-74
2022/10/16 11:51:24;;;;;;;1.25;0.80;;;;;;;23.39;47.36;101131.81;5095294;27;20047;-74
2022/10/16 11:54:00;;;;;;;1.38;0.80;;;;;;;23.50;46.79;101134.31;5104485;27;20043;-74
2022/10/16 11:56:30;;;;;;;1.60;0.90;;;;;;;23.62;45.63;101133.91;5102657;27;20066;-74
2022/10/16 11:59:01;;;;;;;1.40;0.80;;;;;;;23.96;45.51;101144.75;5105297;27;20047;-74
2022/10/16 12:01:34;;;;;;;1.38;0.70;;;;;;;24.36;45.45;101140.69;5104286;27;20043;-74
2022/10/16 12:04:15;;;;;;;2.78;0.85;;;;;;;24.21;44.16;101138.59;5104225;27;20062;-73
2022/10/16 12:06:45;;;;;;;2.90;1.00;;;;;;;24.50;45.05;101132.06;5104466;27;20058;-74
2022/10/16 12:09:17;;;;;;;4.88;1.10;;;;;;;24.47;42.46;101143.94;5094938;27;20454;-74
2022/10/16 12:11:45;;;;;;;2.20;0.95;;;;;;;23.98;43.45;101147.28;5104924;27;20043;-73
2022/10/16 12:14:35;;;;;;;2.45;0.93;;;;;;;23.99;43.43;101152.47;5105540;27;20043;-75
2022/10/16 12:17:05;;;;;;;2.60;0.95;;;;;;;23.65;42.00;101148.84;5103394;27;20054;-74
2022/10/16 12:19:56;;;;;;;3.22;0.90;;;;;;;22.80;44.59;101143.84;5104885;27;20528;-74
2022/10/16 12:22:31;;;;;;;2.83;0.95;;;;;;;23.04;45.71;101152.19;5062628;27;20076;-74
2022/10/16 12:24:58;;;;;;;4.13;1.30;;;;;;;23.08;43.82;101155.41;5089147;27;20050;-74
2022/10/16 12:27:30;;;;;;;3.28;0.90;;;;;;;23.16;44.34;101155.50;5090127;28;20096;-74
2022/10/16 12:29:59;;;;;;;5.93;0.82;;;;;;;23.01;43.87;101157.84;5091034;28;20071;-73
2022/10/16 12:32:32;;;;;;;1.88;0.90;;;;;;;23.11;43.82;101161.28;5079994;28;20043;-74
2022/10/16 12:35:00;;;;;;;2.38;0.60;;;;;;;23.44;44.59;101148.28;5089924;28;20051;-74
2022/10/16 12:37:30;;;;;;;3.83;0.90;;;;;;;23.41;42.71;101148.56;5081801;28;20051;-74
2022/10/16 12:39:58;;;;;;;3.42;1.00;;;;;;;23.18;44.43;101143.63;5090808;27;20066;-74
2022/10/16 12:42:34;;;;;;;1.80;0.88;;;;;;;23.27;44.41;101164.16;5090051;28;20075;-74
2022/10/16 12:45:02;;;;;;;3.28;0.80;;;;;;;23.28;42.83;101160.47;5079696;27;20051;-74
2022/10/16 12:47:47;;;;;;;2.10;0.85;;;;;;;23.02;43.72;101162.16;5089823;28;20388;-74
2022/10/16 12:50:39;;;;;;;3.92;1.00;;;;;;;23.46;44.12;101167.72;5079935;27;20055;-75